Terminal Aerodrome Forecast
Issued by NWS Newport/Morehead City, NC

Home | Current Version | Previous Version | Text Only | Print | Product List | Glossary Off
Versions: 1 2 3 4 5 6 7 8 9 10 11 12 13 14 15 16 17 18

621
FTUS42 KMHX 290203 AAA
TAFEWN
TAF AMD
KEWN 290203Z 2902/2924 VRB04KT 4SM BR SCT002 SCT120
      TEMPO 2905/2909 1 1/2SM BR BKN002
     FM291200 36006KT P6SM SCT030
      TEMPO 2912/2915 BKN030
     FM291500 03008KT P6SM SCT200=

USA.gov is the U.S. government's official web portal to all federal, state and local government web resources and services.